sensor_id;sensor_type;location;lat;lon;timestamp;temperature;humidity
7688;DHT22;30781;48.154;11.554;2022-08-03T00:00:57;21.40;72.70
7688;DHT22;30781;48.154;11.554;2022-08-03T00:03:25;21.40;73.00
7688;DHT22;30781;48.154;11.554;2022-08-03T00:05:52;21.30;73.10
7688;DHT22;30781;48.154;11.554;2022-08-03T00:08:19;21.30;73.20
7688;DHT22;30781;48.154;11.554;2022-08-03T00:10:46;21.30;73.40
7688;DHT22;30781;48.154;11.554;2022-08-03T00:13:13;21.30;73.70
7688;DHT22;30781;48.154;11.554;2022-08-03T00:15:41;21.20;73.60
7688;DHT22;30781;48.154;11.554;2022-08-03T00:18:08;21.20;73.70
7688;DHT22;30781;48.154;11.554;2022-08-03T00:20:36;21.20;73.80
7688;DHT22;30781;48.154;11.554;2022-08-03T00:23:04;21.20;73.80
7688;DHT22;30781;48.154;11.554;2022-08-03T00:25:32;21.20;73.40
7688;DHT22;30781;48.154;11.554;2022-08-03T00:27:59;21.20;73.30
7688;DHT22;30781;48.154;11.554;2022-08-03T00:30:27;21.10;73.20
7688;DHT22;30781;48.154;11.554;2022-08-03T00:32:54;21.10;73.10
7688;DHT22;30781;48.154;11.554;2022-08-03T00:35:21;21.10;72.90
7688;DHT22;30781;48.154;11.554;2022-08-03T00:37:49;21.10;72.90
7688;DHT22;30781;48.154;11.554;2022-08-03T00:40:17;21.10;73.20
7688;DHT22;30781;48.154;11.554;2022-08-03T00:42:49;21.00;73.50
7688;DHT22;30781;48.154;11.554;2022-08-03T00:45:19;21.00;73.60
7688;DHT22;30781;48.154;11.554;2022-08-03T00:47:46;21.00;73.70
7688;DHT22;30781;48.154;11.554;2022-08-03T00:50:13;21.00;73.60
7688;DHT22;30781;48.154;11.554;2022-08-03T00:52:40;20.90;73.60
7688;DHT22;30781;48.154;11.554;2022-08-03T00:55:09;20.90;73.40
7688;DHT22;30781;48.154;11.554;2022-08-03T00:57:37;20.90;73.50
7688;DHT22;30781;48.154;11.554;2022-08-03T01:00:05;20.80;73.30
7688;DHT22;30781;48.154;11.554;2022-08-03T01:02:33;20.80;73.40
7688;DHT22;30781;48.154;11.554;2022-08-03T01:05:00;20.80;73.30
7688;DHT22;30781;48.154;11.554;2022-08-03T01:07:44;20.80;73.40
7688;DHT22;30781;48.154;11.554;2022-08-03T01:10:18;20.70;73.80
7688;DHT22;30781;48.154;11.554;2022-08-03T01:12:56;20.70;73.80
7688;DHT22;30781;48.154;11.554;2022-08-03T01:15:30;20.70;74.00
7688;DHT22;30781;48.154;11.554;2022-08-03T01:18:02;20.60;73.70
7688;DHT22;30781;48.154;11.554;2022-08-03T01:20:32;20.60;73.20
7688;DHT22;30781;48.154;11.554;2022-08-03T01:23:15;20.60;73.20
7688;DHT22;30781;48.154;11.554;2022-08-03T01:26:20;20.60;73.20
7688;DHT22;30781;48.154;11.554;2022-08-03T01:29:03;20.50;73.30
7688;DHT22;30781;48.154;11.554;2022-08-03T01:31:39;20.50;73.80
7688;DHT22;30781;48.154;11.554;2022-08-03T01:34:11;20.50;73.90
7688;DHT22;30781;48.154;11.554;2022-08-03T01:36:46;20.40;73.80
7688;DHT22;30781;48.154;11.554;2022-08-03T01:39:15;20.40;73.80
7688;DHT22;30781;48.154;11.554;2022-08-03T01:41:47;20.40;73.80
7688;DHT22;30781;48.154;11.554;2022-08-03T01:44:15;20.40;74.00
7688;DHT22;30781;48.154;11.554;2022-08-03T01:46:44;20.40;74.10
7688;DHT22;30781;48.154;11.554;2022-08-03T01:49:14;20.40;74.30
7688;DHT22;30781;48.154;11.554;2022-08-03T01:51:44;20.40;74.30
7688;DHT22;30781;48.154;11.554;2022-08-03T01:54:12;20.30;74.40
7688;DHT22;30781;48.154;11.554;2022-08-03T01:56:40;20.30;74.40
7688;DHT22;30781;48.154;11.554;2022-08-03T01:59:09;20.30;74.50
7688;DHT22;30781;48.154;11.554;2022-08-03T02:01:37;20.30;74.60
7688;DHT22;30781;48.154;11.554;2022-08-03T02:04:07;20.30;74.80
7688;DHT22;30781;48.154;11.554;2022-08-03T02:06:36;20.30;75.00
7688;DHT22;30781;48.154;11.554;2022-08-03T02:09:05;20.20;75.00
7688;DHT22;30781;48.154;11.554;2022-08-03T02:11:33;20.20;75.10
7688;DHT22;30781;48.154;11.554;2022-08-03T02:14:03;20.20;75.20
7688;DHT22;30781;48.154;11.554;2022-08-03T02:16:32;20.20;75.40
7688;DHT22;30781;48.154;11.554;2022-08-03T02:19:03;20.10;75.20
7688;DHT22;30781;48.154;11.554;2022-08-03T02:21:35;20.10;75.40
7688;DHT22;30781;48.154;11.554;2022-08-03T02:24:03;20.10;75.50
7688;DHT22;30781;48.154;11.554;2022-08-03T02:26:31;20.10;75.80
7688;DHT22;30781;48.154;11.554;2022-08-03T02:29:06;20.00;75.70
7688;DHT22;30781;48.154;11.554;2022-08-03T02:31:36;20.00;75.80
7688;DHT22;30781;48.154;11.554;2022-08-03T02:34:07;20.00;76.00
7688;DHT22;30781;48.154;11.554;2022-08-03T02:36:38;20.00;76.20
7688;DHT22;30781;48.154;11.554;2022-08-03T02:39:09;20.00;76.30
7688;DHT22;30781;48.154;11.554;2022-08-03T02:41:41;19.90;76.40
7688;DHT22;30781;48.154;11.554;2022-08-03T02:44:10;19.90;76.60
7688;DHT22;30781;48.154;11.554;2022-08-03T02:46:43;19.90;76.40
7688;DHT22;30781;48.154;11.554;2022-08-03T02:49:13;19.90;76.40
7688;DHT22;30781;48.154;11.554;2022-08-03T02:51:43;19.90;76.60
7688;DHT22;30781;48.154;11.554;2022-08-03T02:54:11;19.90;76.70
7688;DHT22;30781;48.154;11.554;2022-08-03T02:56:41;19.80;76.70
7688;DHT22;30781;48.154;11.554;2022-08-03T02:59:09;19.80;76.90
7688;DHT22;30781;48.154;11.554;2022-08-03T03:01:38;19.70;77.30
7688;DHT22;30781;48.154;11.554;2022-08-03T03:04:06;19.70;77.50
7688;DHT22;30781;48.154;11.554;2022-08-03T03:06:34;19.70;77.50
7688;DHT22;30781;48.154;11.554;2022-08-03T03:09:03;19.70;77.70
7688;DHT22;30781;48.154;11.554;2022-08-03T03:11:31;19.70;77.80
7688;DHT22;30781;48.154;11.554;2022-08-03T03:13:59;19.60;77.80
7688;DHT22;30781;48.154;11.554;2022-08-03T03:16:28;19.60;78.10
7688;DHT22;30781;48.154;11.554;2022-08-03T03:18:56;19.60;78.40
7688;DHT22;30781;48.154;11.554;2022-08-03T03:21:24;19.60;78.30
7688;DHT22;30781;48.154;11.554;2022-08-03T03:23:53;19.60;78.30
7688;DHT22;30781;48.154;11.554;2022-08-03T03:26:21;19.50;78.30
7688;DHT22;30781;48.154;11.554;2022-08-03T03:28:49;19.50;78.40
7688;DHT22;30781;48.154;11.554;2022-08-03T03:31:16;19.50;78.60
7688;DHT22;30781;48.154;11.554;2022-08-03T03:33:44;19.50;78.80
7688;DHT22;30781;48.154;11.554;2022-08-03T03:36:11;19.50;79.10
7688;DHT22;30781;48.154;11.554;2022-08-03T03:38:38;19.50;79.00
7688;DHT22;30781;48.154;11.554;2022-08-03T03:41:05;19.40;78.90
7688;DHT22;30781;48.154;11.554;2022-08-03T03:43:34;19.40;78.90
7688;DHT22;30781;48.154;11.554;2022-08-03T03:46:01;19.40;79.00
7688;DHT22;30781;48.154;11.554;2022-08-03T03:48:28;19.40;79.10
7688;DHT22;30781;48.154;11.554;2022-08-03T03:50:55;19.30;79.10
7688;DHT22;30781;48.154;11.554;2022-08-03T03:53:24;19.30;79.20
7688;DHT22;30781;48.154;11.554;2022-08-03T03:55:51;19.30;79.20
7688;DHT22;30781;48.154;11.554;2022-08-03T03:58:19;19.30;79.30
7688;DHT22;30781;48.154;11.554;2022-08-03T04:00:48;19.30;79.10
7688;DHT22;30781;48.154;11.554;2022-08-03T04:03:15;19.30;78.90
7688;DHT22;30781;48.154;11.554;2022-08-03T04:05:43;19.30;78.70
7688;DHT22;30781;48.154;11.554;2022-08-03T04:08:27;19.30;78.50
7688;DHT22;30781;48.154;11.554;2022-08-03T04:11:15;19.30;78.30
7688;DHT22;30781;48.154;11.554;2022-08-03T04:13:48;19.40;78.30
7688;DHT22;30781;48.154;11.554;2022-08-03T04:16:24;19.40;78.30
7688;DHT22;30781;48.154;11.554;2022-08-03T04:18:56;19.40;78.20
7688;DHT22;30781;48.154;11.554;2022-08-03T04:21:25;19.40;78.20
7688;DHT22;30781;48.154;11.554;2022-08-03T04:23:55;19.40;78.20
7688;DHT22;30781;48.154;11.554;2022-08-03T04:26:27;19.50;78.20
7688;DHT22;30781;48.154;11.554;2022-08-03T04:28:56;19.50;78.10
7688;DHT22;30781;48.154;11.554;2022-08-03T04:31:26;19.50;78.40
7688;DHT22;30781;48.154;11.554;2022-08-03T04:33:54;19.50;78.30
7688;DHT22;30781;48.154;11.554;2022-08-03T04:36:24;19.50;78.20
7688;DHT22;30781;48.154;11.554;2022-08-03T04:38:59;19.50;78.30
7688;DHT22;30781;48.154;11.554;2022-08-03T04:41:27;19.60;78.60
7688;DHT22;30781;48.154;11.554;2022-08-03T04:43:56;19.60;78.70
7688;DHT22;30781;48.154;11.554;2022-08-03T04:46:26;19.60;78.80
7688;DHT22;30781;48.154;11.554;2022-08-03T04:48:56;19.60;78.70
7688;DHT22;30781;48.154;11.554;2022-08-03T04:51:24;19.60;78.60
7688;DHT22;30781;48.154;11.554;2022-08-03T04:53:51;19.70;78.70
7688;DHT22;30781;48.154;11.554;2022-08-03T04:56:19;19.70;78.50
7688;DHT22;30781;48.154;11.554;2022-08-03T04:58:46;19.80;78.60
7688;DHT22;30781;48.154;11.554;2022-08-03T05:01:14;19.70;78.50
7688;DHT22;30781;48.154;11.554;2022-08-03T05:03:46;19.80;78.60
7688;DHT22;30781;48.154;11.554;2022-08-03T05:06:13;19.80;78.60
7688;DHT22;30781;48.154;11.554;2022-08-03T05:08:40;19.80;78.40
7688;DHT22;30781;48.154;11.554;2022-08-03T05:11:07;19.90;78.40
7688;DHT22;30781;48.154;11.554;2022-08-03T05:13:34;19.90;78.30
7688;DHT22;30781;48.154;11.554;2022-08-03T05:16:01;19.90;78.20
7688;DHT22;30781;48.154;11.554;2022-08-03T05:18:28;20.00;78.00
7688;DHT22;30781;48.154;11.554;2022-08-03T05:20:58;20.10;78.00
7688;DHT22;30781;48.154;11.554;2022-08-03T05:23:25;20.10;77.80
7688;DHT22;30781;48.154;11.554;2022-08-03T05:25:52;20.10;77.50
7688;DHT22;30781;48.154;11.554;2022-08-03T05:28:19;20.20;77.40
7688;DHT22;30781;48.154;11.554;2022-08-03T05:30:46;20.20;77.40
7688;DHT22;30781;48.154;11.554;2022-08-03T05:33:13;20.20;77.00
7688;DHT22;30781;48.154;11.554;2022-08-03T05:35:40;20.30;77.00
7688;DHT22;30781;48.154;11.554;2022-08-03T05:38:08;20.30;76.80
7688;DHT22;30781;48.154;11.554;2022-08-03T05:40:35;20.40;76.70
7688;DHT22;30781;48.154;11.554;2022-08-03T05:43:02;20.40;76.50
7688;DHT22;30781;48.154;11.554;2022-08-03T05:45:29;20.40;76.50
7688;DHT22;30781;48.154;11.554;2022-08-03T05:47:56;20.50;76.50
7688;DHT22;30781;48.154;11.554;2022-08-03T05:50:23;20.60;76.30
7688;DHT22;30781;48.154;11.554;2022-08-03T05:52:54;20.60;76.30
7688;DHT22;30781;48.154;11.554;2022-08-03T05:55:27;20.60;76.00
7688;DHT22;30781;48.154;11.554;2022-08-03T05:57:54;20.70;75.80
7688;DHT22;30781;48.154;11.554;2022-08-03T06:00:21;20.80;75.70
7688;DHT22;30781;48.154;11.554;2022-08-03T06:02:48;20.80;75.40
7688;DHT22;30781;48.154;11.554;2022-08-03T06:05:15;20.90;75.40
7688;DHT22;30781;48.154;11.554;2022-08-03T06:07:42;20.90;75.30
7688;DHT22;30781;48.154;11.554;2022-08-03T06:10:10;20.90;75.30
7688;DHT22;30781;48.154;11.554;2022-08-03T06:12:38;21.10;75.10
7688;DHT22;30781;48.154;11.554;2022-08-03T06:15:07;21.10;74.70
7688;DHT22;30781;48.154;11.554;2022-08-03T06:17:41;21.20;73.80
7688;DHT22;30781;48.154;11.554;2022-08-03T06:20:10;21.30;73.80
7688;DHT22;30781;48.154;11.554;2022-08-03T06:22:38;22.00;73.40
7688;DHT22;30781;48.154;11.554;2022-08-03T06:25:05;23.00;71.70
7688;DHT22;30781;48.154;11.554;2022-08-03T06:27:32;24.20;69.10
7688;DHT22;30781;48.154;11.554;2022-08-03T06:30:03;25.40;66.00
7688;DHT22;30781;48.154;11.554;2022-08-03T06:32:30;26.80;62.20
7688;DHT22;30781;48.154;11.554;2022-08-03T06:34:58;28.00;59.10
7688;DHT22;30781;48.154;11.554;2022-08-03T06:37:25;29.10;55.60
7688;DHT22;30781;48.154;11.554;2022-08-03T06:39:53;30.00;53.50
7688;DHT22;30781;48.154;11.554;2022-08-03T06:42:20;31.00;51.40
7688;DHT22;30781;48.154;11.554;2022-08-03T06:44:47;31.90;49.20
7688;DHT22;30781;48.154;11.554;2022-08-03T06:47:16;32.80;46.60
7688;DHT22;30781;48.154;11.554;2022-08-03T06:49:43;33.50;44.20
7688;DHT22;30781;48.154;11.554;2022-08-03T06:52:10;34.20;43.10
7688;DHT22;30781;48.154;11.554;2022-08-03T06:54:37;34.90;41.70
7688;DHT22;30781;48.154;11.554;2022-08-03T06:57:04;35.40;40.40
7688;DHT22;30781;48.154;11.554;2022-08-03T06:59:33;36.00;39.00
7688;DHT22;30781;48.154;11.554;2022-08-03T07:02:00;36.50;38.20
7688;DHT22;30781;48.154;11.554;2022-08-03T07:04:28;37.10;36.70
7688;DHT22;30781;48.154;11.554;2022-08-03T07:06:55;37.50;35.50
7688;DHT22;30781;48.154;11.554;2022-08-03T07:09:23;37.80;34.70
7688;DHT22;30781;48.154;11.554;2022-08-03T07:11:51;38.10;34.60
7688;DHT22;30781;48.154;11.554;2022-08-03T07:14:18;38.40;33.40
7688;DHT22;30781;48.154;11.554;2022-08-03T07:16:45;38.60;32.50
7688;DHT22;30781;48.154;11.554;2022-08-03T07:19:12;38.60;32.30
7688;DHT22;30781;48.154;11.554;2022-08-03T07:21:41;38.50;32.50
7688;DHT22;30781;48.154;11.554;2022-08-03T07:24:08;38.60;32.60
7688;DHT22;30781;48.154;11.554;2022-08-03T07:26:35;38.80;32.40
7688;DHT22;30781;48.154;11.554;2022-08-03T07:29:02;38.90;31.50
7688;DHT22;30781;48.154;11.554;2022-08-03T07:31:30;38.90;31.50
7688;DHT22;30781;48.154;11.554;2022-08-03T07:33:57;38.90;31.70
7688;DHT22;30781;48.154;11.554;2022-08-03T07:36:24;39.10;31.60
7688;DHT22;30781;48.154;11.554;2022-08-03T07:38:53;39.40;31.30
7688;DHT22;30781;48.154;11.554;2022-08-03T07:41:20;39.80;30.90
7688;DHT22;30781;48.154;11.554;2022-08-03T07:43:47;40.00;30.80
7688;DHT22;30781;48.154;11.554;2022-08-03T07:46:14;40.30;30.50
7688;DHT22;30781;48.154;11.554;2022-08-03T07:48:41;40.60;29.80
7688;DHT22;30781;48.154;11.554;2022-08-03T07:51:08;40.90;29.50
7688;DHT22;30781;48.154;11.554;2022-08-03T07:53:35;41.10;29.40
7688;DHT22;30781;48.154;11.554;2022-08-03T07:56:04;41.30;29.00
7688;DHT22;30781;48.154;11.554;2022-08-03T07:58:31;41.40;28.40
7688;DHT22;30781;48.154;11.554;2022-08-03T08:00:58;41.50;28.30
7688;DHT22;30781;48.154;11.554;2022-08-03T08:03:25;41.50;28.40
7688;DHT22;30781;48.154;11.554;2022-08-03T08:05:52;41.50;28.30
7688;DHT22;30781;48.154;11.554;2022-08-03T08:08:19;41.30;28.20
7688;DHT22;30781;48.154;11.554;2022-08-03T08:10:47;41.00;28.20
7688;DHT22;30781;48.154;11.554;2022-08-03T08:13:15;40.80;28.50
7688;DHT22;30781;48.154;11.554;2022-08-03T08:15:42;40.80;28.50
7688;DHT22;30781;48.154;11.554;2022-08-03T08:18:09;40.80;28.20
7688;DHT22;30781;48.154;11.554;2022-08-03T08:20:37;40.70;28.40
7688;DHT22;30781;48.154;11.554;2022-08-03T08:23:06;40.60;28.30
7688;DHT22;30781;48.154;11.554;2022-08-03T08:25:34;40.40;28.60
7688;DHT22;30781;48.154;11.554;2022-08-03T08:28:01;40.40;28.80
7688;DHT22;30781;48.154;11.554;2022-08-03T08:30:31;40.30;28.80
7688;DHT22;30781;48.154;11.554;2022-08-03T08:32:59;40.20;29.00
7688;DHT22;30781;48.154;11.554;2022-08-03T08:35:26;40.30;28.80
7688;DHT22;30781;48.154;11.554;2022-08-03T08:37:53;40.30;28.60
7688;DHT22;30781;48.154;11.554;2022-08-03T08:40:21;40.30;28.80
7688;DHT22;30781;48.154;11.554;2022-08-03T08:42:49;40.30;28.80
7688;DHT22;30781;48.154;11.554;2022-08-03T08:45:16;40.40;28.80
7688;DHT22;30781;48.154;11.554;2022-08-03T08:47:47;40.60;28.60
7688;DHT22;30781;48.154;11.554;2022-08-03T08:50:18;40.60;28.10
7688;DHT22;30781;48.154;11.554;2022-08-03T08:52:46;40.60;27.90
7688;DHT22;30781;48.154;11.554;2022-08-03T08:55:19;40.50;27.90
7688;DHT22;30781;48.154;11.554;2022-08-03T08:57:48;40.40;28.20
7688;DHT22;30781;48.154;11.554;2022-08-03T09:00:17;40.10;28.30
7688;DHT22;30781;48.154;11.554;2022-08-03T09:02:45;40.00;28.70
7688;DHT22;30781;48.154;11.554;2022-08-03T09:05:14;39.90;28.30
7688;DHT22;30781;48.154;11.554;2022-08-03T09:07:42;39.80;28.30
7688;DHT22;30781;48.154;11.554;2022-08-03T09:10:11;39.70;28.10
7688;DHT22;30781;48.154;11.554;2022-08-03T09:12:40;39.50;28.20
7688;DHT22;30781;48.154;11.554;2022-08-03T09:15:21;39.30;28.10
7688;DHT22;30781;48.154;11.554;2022-08-03T09:17:51;39.10;28.20
7688;DHT22;30781;48.154;11.554;2022-08-03T09:20:19;38.80;28.80
7688;DHT22;30781;48.154;11.554;2022-08-03T09:22:55;38.60;28.80
7688;DHT22;30781;48.154;11.554;2022-08-03T09:25:27;38.50;27.90
7688;DHT22;30781;48.154;11.554;2022-08-03T09:27:54;38.30;28.60
7688;DHT22;30781;48.154;11.554;2022-08-03T09:30:30;38.00;28.90
7688;DHT22;30781;48.154;11.554;2022-08-03T09:33:01;37.70;28.60
7688;DHT22;30781;48.154;11.554;2022-08-03T09:35:28;37.30;28.90
7688;DHT22;30781;48.154;11.554;2022-08-03T09:38:09;36.60;29.20
7688;DHT22;30781;48.154;11.554;2022-08-03T09:40:36;35.90;30.00
7688;DHT22;30781;48.154;11.554;2022-08-03T09:43:03;35.20;31.10
7688;DHT22;30781;48.154;11.554;2022-08-03T09:45:32;34.60;31.40
7688;DHT22;30781;48.154;11.554;2022-08-03T09:48:19;34.10;31.80
7688;DHT22;30781;48.154;11.554;2022-08-03T09:50:47;33.50;32.60
7688;DHT22;30781;48.154;11.554;2022-08-03T09:53:16;33.10;32.70
7688;DHT22;30781;48.154;11.554;2022-08-03T09:55:50;32.80;33.50
7688;DHT22;30781;48.154;11.554;2022-08-03T09:58:19;32.50;33.90
7688;DHT22;30781;48.154;11.554;2022-08-03T10:00:58;32.10;34.30
7688;DHT22;30781;48.154;11.554;2022-08-03T10:03:28;31.90;34.60
7688;DHT22;30781;48.154;11.554;2022-08-03T10:05:56;31.60;34.90
7688;DHT22;30781;48.154;11.554;2022-08-03T10:08:23;31.40;34.90
7688;DHT22;30781;48.154;11.554;2022-08-03T10:10:51;31.20;35.30
7688;DHT22;30781;48.154;11.554;2022-08-03T10:13:20;31.00;35.50
7688;DHT22;30781;48.154;11.554;2022-08-03T10:15:48;30.80;35.90
7688;DHT22;30781;48.154;11.554;2022-08-03T10:18:15;30.70;36.10
7688;DHT22;30781;48.154;11.554;2022-08-03T10:20:49;30.60;36.80
7688;DHT22;30781;48.154;11.554;2022-08-03T10:23:17;30.50;36.90
7688;DHT22;30781;48.154;11.554;2022-08-03T10:25:46;30.40;37.00
7688;DHT22;30781;48.154;11.554;2022-08-03T10:28:17;30.30;36.80
7688;DHT22;30781;48.154;11.554;2022-08-03T10:30:47;30.20;37.00
7688;DHT22;30781;48.154;11.554;2022-08-03T10:33:17;30.10;36.50
7688;DHT22;30781;48.154;11.554;2022-08-03T10:35:51;30.00;36.80
7688;DHT22;30781;48.154;11.554;2022-08-03T10:38:21;30.00;37.50
7688;DHT22;30781;48.154;11.554;2022-08-03T10:40:52;30.00;37.80
7688;DHT22;30781;48.154;11.554;2022-08-03T10:43:21;30.00;38.00
7688;DHT22;30781;48.154;11.554;2022-08-03T10:45:52;30.00;38.10
7688;DHT22;30781;48.154;11.554;2022-08-03T10:48:19;30.00;37.50
7688;DHT22;30781;48.154;11.554;2022-08-03T10:50:49;30.00;37.50
7688;DHT22;30781;48.154;11.554;2022-08-03T10:53:33;30.00;35.80
7688;DHT22;30781;48.154;11.554;2022-08-03T10:56:01;30.00;36.60
7688;DHT22;30781;48.154;11.554;2022-08-03T10:58:46;29.80;37.20
7688;DHT22;30781;48.154;11.554;2022-08-03T11:01:15;29.80;37.20
7688;DHT22;30781;48.154;11.554;2022-08-03T11:04:14;29.80;37.30
7688;DHT22;30781;48.154;11.554;2022-08-03T11:06:44;29.90;36.60
7688;DHT22;30781;48.154;11.554;2022-08-03T11:09:16;29.80;36.50
7688;DHT22;30781;48.154;11.554;2022-08-03T11:11:45;29.90;36.00
7688;DHT22;30781;48.154;11.554;2022-08-03T11:14:14;29.90;36.10
7688;DHT22;30781;48.154;11.554;2022-08-03T11:16:44;29.90;36.20
7688;DHT22;30781;48.154;11.554;2022-08-03T11:19:13;29.90;36.50
7688;DHT22;30781;48.154;11.554;2022-08-03T11:21:58;29.90;36.50
7688;DHT22;30781;48.154;11.554;2022-08-03T11:24:57;30.00;36.60
7688;DHT22;30781;48.154;11.554;2022-08-03T11:27:28;30.00;35.90
7688;DHT22;30781;48.154;11.554;2022-08-03T11:29:58;29.90;35.80
7688;DHT22;30781;48.154;11.554;2022-08-03T11:32:50;30.00;35.30
7688;DHT22;30781;48.154;11.554;2022-08-03T11:35:19;30.00;35.40
7688;DHT22;30781;48.154;11.554;2022-08-03T11:38:05;30.00;35.70
7688;DHT22;30781;48.154;11.554;2022-08-03T11:40:34;30.10;35.80
7688;DHT22;30781;48.154;11.554;2022-08-03T11:43:03;30.10;35.60
7688;DHT22;30781;48.154;11.554;2022-08-03T11:45:30;30.10;35.80
7688;DHT22;30781;48.154;11.554;2022-08-03T11:48:01;30.10;35.40
7688;DHT22;30781;48.154;11.554;2022-08-03T11:50:35;30.00;34.40
7688;DHT22;30781;48.154;11.554;2022-08-03T11:53:04;30.00;33.90
7688;DHT22;30781;48.154;11.554;2022-08-03T11:55:32;30.00;34.00
7688;DHT22;30781;48.154;11.554;2022-08-03T11:58:01;30.10;34.20
7688;DHT22;30781;48.154;11.554;2022-08-03T12:00:30;30.10;33.80
7688;DHT22;30781;48.154;11.554;2022-08-03T12:03:05;30.10;34.00
7688;DHT22;30781;48.154;11.554;2022-08-03T12:05:42;30.20;34.40
7688;DHT22;30781;48.154;11.554;2022-08-03T12:08:13;30.20;33.90
7688;DHT22;30781;48.154;11.554;2022-08-03T12:10:45;30.20;33.80
7688;DHT22;30781;48.154;11.554;2022-08-03T12:13:13;30.30;33.90
7688;DHT22;30781;48.154;11.554;2022-08-03T12:15:40;30.30;33.60
7688;DHT22;30781;48.154;11.554;2022-08-03T12:18:15;30.30;33.80
7688;DHT22;30781;48.154;11.554;2022-08-03T12:20:43;30.30;33.90
7688;DHT22;30781;48.154;11.554;2022-08-03T12:23:12;30.30;33.80
7688;DHT22;30781;48.154;11.554;2022-08-03T12:25:40;30.30;33.80
7688;DHT22;30781;48.154;11.554;2022-08-03T12:28:11;30.40;33.90
7688;DHT22;30781;48.154;11.554;2022-08-03T12:30:42;30.40;34.00
7688;DHT22;30781;48.154;11.554;2022-08-03T12:33:27;30.50;33.70
7688;DHT22;30781;48.154;11.554;2022-08-03T12:36:05;30.50;33.50
7688;DHT22;30781;48.154;11.554;2022-08-03T12:38:36;30.50;33.90
7688;DHT22;30781;48.154;11.554;2022-08-03T12:41:06;30.50;33.30
7688;DHT22;30781;48.154;11.554;2022-08-03T12:43:46;30.50;33.50
7688;DHT22;30781;48.154;11.554;2022-08-03T12:46:15;30.50;33.80
7688;DHT22;30781;48.154;11.554;2022-08-03T12:49:02;30.50;33.40
7688;DHT22;30781;48.154;11.554;2022-08-03T12:51:31;30.60;33.40
7688;DHT22;30781;48.154;11.554;2022-08-03T12:54:00;30.60;33.60
7688;DHT22;30781;48.154;11.554;2022-08-03T12:56:27;30.60;32.40
7688;DHT22;30781;48.154;11.554;2022-08-03T12:58:54;30.70;32.10
7688;DHT22;30781;48.154;11.554;2022-08-03T13:01:21;30.70;32.00
7688;DHT22;30781;48.154;11.554;2022-08-03T13:03:52;30.80;32.80
7688;DHT22;30781;48.154;11.554;2022-08-03T13:06:21;30.80;34.90
7688;DHT22;30781;48.154;11.554;2022-08-03T13:09:02;30.80;35.10
7688;DHT22;30781;48.154;11.554;2022-08-03T13:11:30;30.80;35.30
7688;DHT22;30781;48.154;11.554;2022-08-03T13:13:57;30.80;33.70
7688;DHT22;30781;48.154;11.554;2022-08-03T13:16:24;30.90;32.80
7688;DHT22;30781;48.154;11.554;2022-08-03T13:18:51;30.90;32.10
7688;DHT22;30781;48.154;11.554;2022-08-03T13:21:19;30.90;32.30
7688;DHT22;30781;48.154;11.554;2022-08-03T13:23:47;31.00;32.60
7688;DHT22;30781;48.154;11.554;2022-08-03T13:26:16;31.00;32.60
7688;DHT22;30781;48.154;11.554;2022-08-03T13:28:43;31.10;32.60
7688;DHT22;30781;48.154;11.554;2022-08-03T13:31:10;31.10;31.80
7688;DHT22;30781;48.154;11.554;2022-08-03T13:33:37;31.10;32.40
7688;DHT22;30781;48.154;11.554;2022-08-03T13:36:05;31.10;32.70
7688;DHT22;30781;48.154;11.554;2022-08-03T13:38:33;31.10;33.20
7688;DHT22;30781;48.154;11.554;2022-08-03T13:41:01;31.10;33.90
7688;DHT22;30781;48.154;11.554;2022-08-03T13:43:30;31.10;34.40
7688;DHT22;30781;48.154;11.554;2022-08-03T13:45:57;31.10;34.40
7688;DHT22;30781;48.154;11.554;2022-08-03T13:48:24;31.10;34.40
7688;DHT22;30781;48.154;11.554;2022-08-03T13:50:51;31.20;35.10
7688;DHT22;30781;48.154;11.554;2022-08-03T13:53:19;31.20;35.00
7688;DHT22;30781;48.154;11.554;2022-08-03T13:55:46;31.20;34.50
7688;DHT22;30781;48.154;11.554;2022-08-03T13:58:13;31.20;34.50
7688;DHT22;30781;48.154;11.554;2022-08-03T14:00:41;31.30;34.50
7688;DHT22;30781;48.154;11.554;2022-08-03T14:03:09;31.20;33.90
7688;DHT22;30781;48.154;11.554;2022-08-03T14:05:36;31.20;33.30
7688;DHT22;30781;48.154;11.554;2022-08-03T14:08:04;31.30;33.40
7688;DHT22;30781;48.154;11.554;2022-08-03T14:10:33;31.20;34.40
7688;DHT22;30781;48.154;11.554;2022-08-03T14:13:00;31.20;33.80
7688;DHT22;30781;48.154;11.554;2022-08-03T14:15:27;31.20;33.70
7688;DHT22;30781;48.154;11.554;2022-08-03T14:17:56;31.20;33.70
7688;DHT22;30781;48.154;11.554;2022-08-03T14:20:23;31.10;33.90
7688;DHT22;30781;48.154;11.554;2022-08-03T14:22:50;31.20;33.40
7688;DHT22;30781;48.154;11.554;2022-08-03T14:25:17;31.20;33.20
7688;DHT22;30781;48.154;11.554;2022-08-03T14:27:44;31.20;33.50
7688;DHT22;30781;48.154;11.554;2022-08-03T14:30:12;31.30;34.40
7688;DHT22;30781;48.154;11.554;2022-08-03T14:32:40;31.20;34.50
7688;DHT22;30781;48.154;11.554;2022-08-03T14:35:08;31.30;34.70
7688;DHT22;30781;48.154;11.554;2022-08-03T14:37:36;31.20;34.50
7688;DHT22;30781;48.154;11.554;2022-08-03T14:40:04;31.20;34.50
7688;DHT22;30781;48.154;11.554;2022-08-03T14:42:32;31.10;34.40
7688;DHT22;30781;48.154;11.554;2022-08-03T14:44:59;31.10;34.90
7688;DHT22;30781;48.154;11.554;2022-08-03T14:47:26;31.20;34.70
7688;DHT22;30781;48.154;11.554;2022-08-03T14:49:53;31.10;35.00
7688;DHT22;30781;48.154;11.554;2022-08-03T14:52:21;31.20;35.20
7688;DHT22;30781;48.154;11.554;2022-08-03T14:54:48;31.30;34.80
7688;DHT22;30781;48.154;11.554;2022-08-03T14:57:15;31.30;35.10
7688;DHT22;30781;48.154;11.554;2022-08-03T14:59:42;31.30;35.10
7688;DHT22;30781;48.154;11.554;2022-08-03T15:02:09;31.30;34.40
7688;DHT22;30781;48.154;11.554;2022-08-03T15:04:37;31.30;34.50
7688;DHT22;30781;48.154;11.554;2022-08-03T15:07:04;31.40;34.10
7688;DHT22;30781;48.154;11.554;2022-08-03T15:09:33;31.30;33.90
7688;DHT22;30781;48.154;11.554;2022-08-03T15:12:00;31.30;34.10
7688;DHT22;30781;48.154;11.554;2022-08-03T15:14:27;31.30;33.60
7688;DHT22;30781;48.154;11.554;2022-08-03T15:16:54;31.40;33.70
7688;DHT22;30781;48.154;11.554;2022-08-03T15:19:21;31.30;33.40
7688;DHT22;30781;48.154;11.554;2022-08-03T15:21:48;31.30;34.00
7688;DHT22;30781;48.154;11.554;2022-08-03T15:24:15;31.30;32.90
7688;DHT22;30781;48.154;11.554;2022-08-03T15:26:44;31.40;32.90
7688;DHT22;30781;48.154;11.554;2022-08-03T15:29:11;31.40;32.70
7688;DHT22;30781;48.154;11.554;2022-08-03T15:31:39;31.40;33.40
7688;DHT22;30781;48.154;11.554;2022-08-03T15:34:05;31.30;33.00
7688;DHT22;30781;48.154;11.554;2022-08-03T15:36:33;31.30;33.30
7688;DHT22;30781;48.154;11.554;2022-08-03T15:39:00;31.40;33.70
7688;DHT22;30781;48.154;11.554;2022-08-03T15:41:27;31.40;33.90
7688;DHT22;30781;48.154;11.554;2022-08-03T15:43:55;31.30;34.40